createdAt,value
2023-03-26T00:01:10.889Z,96116.19
2023-03-26T00:03:39.028Z,96109.91
2023-03-26T00:06:13.222Z,96117.28
2023-03-26T00:08:42.361Z,96106.69
2023-03-26T00:11:11.695Z,96108.13
2023-03-26T00:13:38.830Z,96096.50
2023-03-26T00:16:05.699Z,96090.09
2023-03-26T00:18:34.880Z,96092.03
2023-03-26T00:21:03.751Z,96090.69
2023-03-26T00:23:32.131Z,96092.19
2023-03-26T00:25:58.557Z,96092.53
2023-03-26T00:28:26.453Z,96092.69
2023-03-26T00:31:02.980Z,96082.00
2023-03-26T00:33:35.185Z,96070.59
2023-03-26T00:36:04.345Z,96072.91
2023-03-26T00:38:31.363Z,96077.47
2023-03-26T00:41:05.962Z,96080.19
2023-03-26T00:43:36.123Z,96078.63
2023-03-26T00:46:03.144Z,96089.84
2023-03-26T00:48:42.217Z,96089.16
2023-03-26T00:51:13.288Z,96087.66
2023-03-26T00:53:41.488Z,96076.44
2023-03-26T00:56:09.384Z,96086.84
2023-03-26T00:58:37.592Z,96091.69
2023-03-26T01:01:16.421Z,96096.38
2023-03-26T01:04:00.818Z,96095.03
2023-03-26T01:06:36.835Z,96102.16
2023-03-26T01:09:20.901Z,96088.44
2023-03-26T01:11:48.720Z,96088.69
2023-03-26T01:14:19.310Z,96083.13
2023-03-26T01:16:54.834Z,96086.13
2023-03-26T01:19:33.826Z,96073.84
2023-03-26T01:22:00.675Z,96079.94
2023-03-26T01:24:27.148Z,96074.44
2023-03-26T01:27:04.348Z,96060.63
2023-03-26T01:29:39.348Z,96052.34
2023-03-26T01:32:27.442Z,96051.31
2023-03-26T01:35:09.199Z,96026.84
2023-03-26T01:38:01.918Z,96027.56
2023-03-26T01:40:29.963Z,96025.25
2023-03-26T01:43:08.972Z,96009.31
2023-03-26T01:45:39.284Z,96002.00
2023-03-26T01:48:07.964Z,96005.78
2023-03-26T01:50:34.299Z,96020.72
2023-03-26T01:53:01.161Z,96015.69
2023-03-26T01:55:44.480Z,96009.44
2023-03-26T01:58:29.150Z,96001.31
2023-03-26T02:01:06.365Z,95994.50
2023-03-26T02:03:42.091Z,95992.84
2023-03-26T02:06:23.820Z,95978.50
2023-03-26T02:09:05.519Z,95969.22
2023-03-26T02:11:35.344Z,95963.16
2023-03-26T02:14:04.551Z,95964.75
2023-03-26T02:16:30.999Z,95967.00
2023-03-26T02:18:59.283Z,95965.00
2023-03-26T02:21:26.947Z,95947.94
2023-03-26T02:24:03.467Z,95930.50
2023-03-26T02:26:32.094Z,95912.22
2023-03-26T02:28:59.357Z,95905.34
2023-03-26T02:31:26.503Z,95898.91
2023-03-26T02:33:55.537Z,95895.72
2023-03-26T02:36:27.947Z,95903.59
2023-03-26T02:38:55.615Z,95898.91
2023-03-26T02:41:22.285Z,95897.25
2023-03-26T02:43:48.920Z,95888.91
2023-03-26T02:46:15.589Z,95879.13
2023-03-26T02:48:42.967Z,95883.13
2023-03-26T02:51:09.666Z,95874.53
2023-03-26T02:53:37.505Z,95863.28
2023-03-26T02:56:04.323Z,95851.69
2023-03-26T02:58:30.772Z,95851.13
2023-03-26T03:00:57.281Z,95839.78
2023-03-26T03:03:25.449Z,95839.00
2023-03-26T03:05:53.474Z,95850.81
2023-03-26T03:08:26.266Z,95840.19
2023-03-26T03:11:08.152Z,95831.81
2023-03-26T03:13:34.762Z,95823.00
2023-03-26T03:16:01.178Z,95817.56
2023-03-26T03:18:27.672Z,95811.28
2023-03-26T03:20:54.522Z,95804.38
2023-03-26T03:23:21.340Z,95798.22
2023-03-26T03:25:48.732Z,95806.72
2023-03-26T03:28:18.172Z,95802.38
2023-03-26T03:30:45.736Z,95800.88
2023-03-26T03:33:13.272Z,95803.66
2023-03-26T03:35:40.139Z,95809.72
2023-03-26T03:38:06.621Z,95801.38
2023-03-26T03:40:33.231Z,95795.16
2023-03-26T03:42:59.640Z,95795.53
2023-03-26T03:45:26.137Z,95793.31
2023-03-26T03:47:53.167Z,95792.63
2023-03-26T03:50:19.897Z,95780.50
2023-03-26T03:52:46.378Z,95754.53
2023-03-26T03:55:14.274Z,95761.16
2023-03-26T03:57:40.931Z,95755.44
2023-03-26T04:00:11.718Z,95750.03
2023-03-26T04:02:39.044Z,95752.03
2023-03-26T04:05:06.104Z,95750.88
2023-03-26T04:07:33.065Z,95738.75
2023-03-26T04:10:00.352Z,95738.50
2023-03-26T04:12:28.414Z,95744.91
2023-03-26T04:14:56.059Z,95738.28
2023-03-26T04:17:23.376Z,95736.09
2023-03-26T04:19:52.798Z,95749.03
2023-03-26T04:22:19.594Z,95735.31
2023-03-26T04:24:46.010Z,95733.56
2023-03-26T04:27:16.504Z,95730.63
2023-03-26T04:29:46.698Z,95743.19
2023-03-26T04:32:26.479Z,95739.41
2023-03-26T04:34:53.672Z,95731.72
2023-03-26T04:37:27.675Z,95729.69
2023-03-26T04:39:55.296Z,95721.81
2023-03-26T04:42:21.721Z,95720.41
2023-03-26T04:44:50.856Z,95708.16
2023-03-26T04:47:18.440Z,95698.25
2023-03-26T04:49:47.335Z,95693.44
2023-03-26T04:52:15.043Z,95680.72
2023-03-26T04:54:44.418Z,95658.50
2023-03-26T04:57:32.602Z,95646.16
2023-03-26T04:59:59.023Z,95640.97
2023-03-26T05:02:26.232Z,95641.22
2023-03-26T05:04:52.997Z,95636.19
2023-03-26T05:07:22.697Z,95615.00
2023-03-26T05:09:49.622Z,95584.28
2023-03-26T05:12:16.718Z,95588.72
2023-03-26T05:14:45.592Z,95591.16
2023-03-26T05:17:14.768Z,95581.84
2023-03-26T05:19:41.752Z,95582.13
2023-03-26T05:22:08.215Z,95587.69
2023-03-26T05:24:34.755Z,95588.41
2023-03-26T05:27:01.202Z,95588.88
2023-03-26T05:29:27.879Z,95587.38
2023-03-26T05:31:54.285Z,95587.28
2023-03-26T05:34:24.118Z,95591.50
2023-03-26T05:36:50.592Z,95594.34
2023-03-26T05:39:17.035Z,95591.81
2023-03-26T05:41:44.700Z,95599.13
2023-03-26T05:44:11.240Z,95577.09
2023-03-26T05:46:37.999Z,95569.75
2023-03-26T05:49:04.404Z,95561.22
2023-03-26T05:51:31.460Z,95572.19
2023-03-26T05:53:58.175Z,95567.72
2023-03-26T05:56:24.629Z,95533.00
2023-03-26T05:58:52.081Z,95537.50
2023-03-26T06:01:19.610Z,95543.66
2023-03-26T06:03:46.870Z,95545.13
2023-03-26T06:06:16.422Z,95547.72
2023-03-26T06:09:01.035Z,95534.09
2023-03-26T06:11:29.353Z,95524.00
2023-03-26T06:13:55.797Z,95502.47
2023-03-26T06:16:26.324Z,95501.28
2023-03-26T06:18:56.169Z,95518.66
2023-03-26T06:21:24.455Z,95519.28
2023-03-26T06:23:51.655Z,95517.34
2023-03-26T06:26:18.336Z,95515.22
2023-03-26T06:28:44.873Z,95515.28
2023-03-26T06:31:11.910Z,95491.31
2023-03-26T06:33:38.574Z,95485.34
2023-03-26T06:36:05.490Z,95488.69
2023-03-26T06:38:32.067Z,95501.00
2023-03-26T06:41:06.193Z,95512.44
2023-03-26T06:43:33.950Z,95508.25
2023-03-26T06:46:01.343Z,95508.66
2023-03-26T06:48:27.964Z,95516.19
2023-03-26T06:50:54.911Z,95527.06
2023-03-26T06:53:21.668Z,95539.34
2023-03-26T06:55:48.680Z,95546.66
2023-03-26T06:58:16.680Z,95558.03
2023-03-26T07:00:44.224Z,95577.84
2023-03-26T07:03:11.502Z,95594.75
2023-03-26T07:05:41.005Z,95614.56
2023-03-26T07:08:07.535Z,95618.56
2023-03-26T07:10:34.045Z,95610.72
2023-03-26T07:13:00.627Z,95625.84
2023-03-26T07:15:28.424Z,95638.16
2023-03-26T07:17:54.903Z,95634.78
2023-03-26T07:20:21.841Z,95617.97
2023-03-26T07:22:48.677Z,95616.28
2023-03-26T07:25:15.724Z,95624.78
2023-03-26T07:27:55.195Z,95638.09
2023-03-26T07:30:28.936Z,95622.50
2023-03-26T07:33:25.704Z,95608.94
2023-03-26T07:35:55.116Z,95601.13
2023-03-26T07:38:53.773Z,95601.88
2023-03-26T07:41:29.265Z,95597.28
2023-03-26T07:44:18.032Z,95589.97
2023-03-26T07:46:47.858Z,95582.47
2023-03-26T07:49:14.795Z,95581.19
2023-03-26T07:51:41.429Z,95582.72
2023-03-26T07:54:10.674Z,95594.50
2023-03-26T07:56:46.219Z,95590.28
2023-03-26T07:59:34.394Z,95572.03
2023-03-26T08:02:09.707Z,95571.56
2023-03-26T08:04:57.353Z,95572.81
2023-03-26T08:08:05.056Z,95559.03
2023-03-26T08:10:57.832Z,95557.22
2023-03-26T08:13:46.046Z,95563.06
2023-03-26T08:16:23.237Z,95559.56
2023-03-26T08:19:11.093Z,95563.25
2023-03-26T08:22:01.283Z,95577.13
2023-03-26T08:24:39.209Z,95573.09
2023-03-26T08:27:18.691Z,95581.94
2023-03-26T08:30:03.604Z,95596.09
2023-03-26T08:32:30.431Z,95593.47
2023-03-26T08:35:04.308Z,95610.44
2023-03-26T08:37:31.261Z,95597.50
2023-03-26T08:39:57.732Z,95582.56
2023-03-26T08:43:03.338Z,95600.59
2023-03-26T08:45:51.420Z,95604.22
2023-03-26T08:48:36.626Z,95622.69
2023-03-26T08:51:24.520Z,95620.47
2023-03-26T08:54:14.839Z,95611.19
2023-03-26T08:57:19.684Z,95624.03
2023-03-26T08:59:54.674Z,95614.63
2023-03-26T09:02:49.740Z,95624.69
2023-03-26T09:05:54.931Z,95630.13
2023-03-26T09:08:54.496Z,95639.94
2023-03-26T09:11:53.626Z,95648.25
2023-03-26T09:14:44.764Z,95651.19
2023-03-26T09:17:26.595Z,95658.03
2023-03-26T09:20:01.871Z,95656.97
2023-03-26T09:22:53.330Z,95656.66
2023-03-26T09:25:53.125Z,95649.66
2023-03-26T09:28:28.299Z,95651.03
2023-03-26T09:31:07.564Z,95641.44
2023-03-26T09:34:05.000Z,95641.72
2023-03-26T09:37:06.355Z,95657.84
2023-03-26T09:39:57.706Z,95664.59
2023-03-26T09:42:37.571Z,95679.47
2023-03-26T09:45:15.993Z,95669.19
2023-03-26T09:48:05.559Z,95655.00
2023-03-26T09:50:54.233Z,95665.28
2023-03-26T09:53:43.181Z,95670.81
2023-03-26T09:56:16.593Z,95656.84
2023-03-26T09:58:53.008Z,95629.63
2023-03-26T10:01:57.848Z,95611.34
2023-03-26T10:04:44.279Z,95618.41
2023-03-26T10:07:46.408Z,95613.81
2023-03-26T10:10:13.233Z,95599.59
2023-03-26T10:12:44.265Z,95616.47
2023-03-26T10:15:19.715Z,95582.47
2023-03-26T10:17:48.760Z,95574.19
2023-03-26T10:20:33.922Z,95579.75
2023-03-26T10:23:09.119Z,95570.44
2023-03-26T10:25:59.100Z,95583.81
2023-03-26T10:29:04.663Z,95571.41
2023-03-26T10:31:40.540Z,95568.34
2023-03-26T10:34:28.566Z,95571.22
2023-03-26T10:38:04.656Z,95578.16
2023-03-26T10:41:15.437Z,95588.13
2023-03-26T10:44:07.832Z,95596.75
2023-03-26T10:47:13.392Z,95620.28
2023-03-26T10:50:05.053Z,95624.03
2023-03-26T10:52:51.867Z,95612.03
2023-03-26T10:55:36.446Z,95599.38
2023-03-26T10:58:05.941Z,95607.34
2023-03-26T11:00:37.689Z,95618.56
2023-03-26T11:03:10.122Z,95614.59
2023-03-26T11:05:51.867Z,95619.47
2023-03-26T11:08:41.533Z,95617.03
2023-03-26T11:11:22.961Z,95627.22
2023-03-26T11:14:11.044Z,95632.94
2023-03-26T11:16:50.881Z,95647.56
2023-03-26T11:19:22.365Z,95646.84
2023-03-26T11:22:00.419Z,95620.28
2023-03-26T11:24:47.970Z,95622.97
2023-03-26T11:27:40.764Z,95636.78
2023-03-26T11:30:14.729Z,95639.84
2023-03-26T11:32:54.680Z,95642.75
2023-03-26T11:35:41.686Z,95640.38
2023-03-26T11:38:31.790Z,95640.19
2023-03-26T11:41:01.701Z,95626.19
2023-03-26T11:43:33.544Z,95635.22
2023-03-26T11:46:03.109Z,95643.16
2023-03-26T11:48:38.261Z,95638.28
2023-03-26T11:51:08.633Z,95634.16
2023-03-26T11:53:38.602Z,95638.78
2023-03-26T11:56:18.329Z,95631.53
2023-03-26T11:58:52.036Z,95635.09
2023-03-26T12:01:32.020Z,95634.38
2023-03-26T12:04:29.400Z,95622.66
2023-03-26T12:07:08.874Z,95633.31
2023-03-26T12:09:35.331Z,95626.69
2023-03-26T12:12:04.344Z,95620.63
2023-03-26T12:14:34.573Z,95626.97
2023-03-26T12:17:11.863Z,95638.25
2023-03-26T12:19:43.199Z,95636.16
2023-03-26T12:22:37.291Z,95619.94
2023-03-26T12:25:19.175Z,95600.44
2023-03-26T12:27:58.726Z,95596.31
2023-03-26T12:30:28.078Z,95583.34
2023-03-26T12:33:14.541Z,95573.66
2023-03-26T12:35:41.367Z,95583.63
2023-03-26T12:38:21.876Z,95580.16
2023-03-26T12:40:49.126Z,95578.84
2023-03-26T12:44:55.668Z,95559.56
2023-03-26T12:47:56.147Z,95550.72
2023-03-26T12:49:15.873Z,95548.50
2023-03-26T12:51:58.716Z,95556.09
2023-03-26T12:54:43.009Z,95554.88
2023-03-26T12:57:32.046Z,95539.16
2023-03-26T13:00:01.678Z,95536.63
2023-03-26T13:02:58.874Z,95533.22
2023-03-26T13:05:50.643Z,95533.59
2023-03-26T13:08:55.723Z,95529.34
2023-03-26T13:11:48.467Z,95512.56
2023-03-26T13:14:33.296Z,95512.06
2023-03-26T13:17:09.060Z,95479.88
2023-03-26T13:19:48.847Z,95458.19
2023-03-26T13:22:32.644Z,95454.34
2023-03-26T13:25:27.866Z,95456.22
2023-03-26T13:27:58.651Z,95452.31
2023-03-26T13:30:41.683Z,95447.28
2023-03-26T13:34:05.252Z,95438.34
2023-03-26T13:36:37.538Z,95424.31
2023-03-26T13:39:04.853Z,95427.59
2023-03-26T13:41:54.203Z,95429.19
2023-03-26T13:44:52.778Z,95431.94
2023-03-26T13:47:36.506Z,95424.34
2023-03-26T13:50:15.793Z,95414.94
2023-03-26T13:52:48.967Z,95394.44
2023-03-26T13:55:22.206Z,95369.06
2023-03-26T13:58:10.978Z,95340.34
2023-03-26T14:00:56.070Z,95321.53
2023-03-26T14:03:36.687Z,95323.50
2023-03-26T14:06:35.518Z,95316.16
2023-03-26T14:09:14.172Z,95327.59
2023-03-26T14:12:06.488Z,95327.94
2023-03-26T14:14:57.689Z,95325.22
2023-03-26T14:17:38.548Z,95297.31
2023-03-26T14:20:29.880Z,95298.59
2023-03-26T14:23:11.538Z,95287.94
2023-03-26T14:26:05.108Z,95287.03
2023-03-26T14:28:53.723Z,95287.81
2023-03-26T14:31:49.128Z,95303.88
2023-03-26T14:34:43.662Z,95308.81
2023-03-26T14:37:43.512Z,95325.03
2023-03-26T14:40:28.462Z,95324.91
2023-03-26T14:43:01.570Z,95322.47
2023-03-26T14:46:01.531Z,95328.84
2023-03-26T14:49:03.554Z,95333.19
2023-03-26T14:51:48.660Z,95335.69
2023-03-26T14:54:20.542Z,95350.06
2023-03-26T14:57:09.779Z,95351.72
2023-03-26T15:00:02.094Z,95362.81
2023-03-26T15:02:47.930Z,95369.25
2023-03-26T15:05:36.622Z,95380.88
2023-03-26T15:08:33.842Z,95410.34
2023-03-26T15:11:24.305Z,95420.88
2023-03-26T15:13:54.639Z,95411.44
2023-03-26T15:16:39.825Z,95406.63
2023-03-26T15:19:16.780Z,95424.06
2023-03-26T15:21:53.370Z,95412.31
2023-03-26T15:24:22.785Z,95428.63
2023-03-26T15:27:37.201Z,95453.16
2023-03-26T15:30:31.466Z,95463.41
2023-03-26T15:33:34.896Z,95453.50
2023-03-26T15:36:33.371Z,95481.97
2023-03-26T15:39:38.055Z,95491.19
2023-03-26T15:42:22.621Z,95486.28
2023-03-26T15:44:57.375Z,95492.28
2023-03-26T15:47:53.938Z,95502.38
2023-03-26T15:50:38.031Z,95502.69
2023-03-26T15:53:33.581Z,95508.34
2023-03-26T15:56:02.989Z,95499.41
2023-03-26T15:59:00.626Z,95499.25
2023-03-26T16:02:03.783Z,95500.06
2023-03-26T16:04:51.674Z,95499.59
2023-03-26T16:07:24.842Z,95515.00
2023-03-26T16:10:29.140Z,95512.03
2023-03-26T16:13:20.616Z,95506.19
2023-03-26T16:15:58.449Z,95495.03
2023-03-26T16:18:31.584Z,95490.38
2023-03-26T16:21:31.361Z,95486.41
2023-03-26T16:24:08.431Z,95478.00
2023-03-26T16:26:54.282Z,95480.94
2023-03-26T16:29:27.021Z,95478.94
2023-03-26T16:32:12.459Z,95480.16
2023-03-26T16:35:22.721Z,95482.03
2023-03-26T16:38:04.540Z,95482.53
2023-03-26T16:40:36.231Z,95467.91
2023-03-26T16:43:30.864Z,95472.25
2023-03-26T16:46:26.829Z,95477.72
2023-03-26T16:49:08.236Z,95469.59
2023-03-26T16:52:06.771Z,95466.66
2023-03-26T16:55:06.562Z,95465.47
2023-03-26T16:57:48.825Z,95457.75
2023-03-26T17:00:49.205Z,95446.41
2023-03-26T17:03:40.709Z,95449.06
2023-03-26T17:06:23.214Z,95449.56
2023-03-26T17:09:17.607Z,95446.66
2023-03-26T17:12:00.673Z,95470.84
2023-03-26T17:14:43.303Z,95491.50
2023-03-26T17:17:18.957Z,95489.47
2023-03-26T17:20:00.720Z,95497.16
2023-03-26T17:22:38.880Z,95504.22
2023-03-26T17:25:22.517Z,95491.69
2023-03-26T17:28:11.920Z,95498.03
2023-03-26T17:31:00.364Z,95497.75
2023-03-26T17:33:30.895Z,95500.34
2023-03-26T17:36:13.123Z,95515.53
2023-03-26T17:38:39.488Z,95534.06
2023-03-26T17:41:07.915Z,95553.72
2023-03-26T17:43:45.443Z,95536.59
2023-03-26T17:46:41.281Z,95542.00
2023-03-26T17:49:14.441Z,95547.94
2023-03-26T17:51:56.614Z,95563.69
2023-03-26T17:54:31.102Z,95566.53
2023-03-26T17:57:04.114Z,95574.31
2023-03-26T17:59:32.738Z,95558.31
2023-03-26T18:02:01.251Z,95557.81
2023-03-26T18:04:37.514Z,95554.09
2023-03-26T18:07:28.639Z,95567.59
2023-03-26T18:10:39.813Z,95576.50
2023-03-26T18:13:34.481Z,95587.28
2023-03-26T18:16:15.076Z,95574.44
2023-03-26T18:18:52.133Z,95583.34
2023-03-26T18:21:35.967Z,95579.94
2023-03-26T18:24:04.519Z,95587.28
2023-03-26T18:26:46.833Z,95587.75
2023-03-26T18:29:28.478Z,95588.09
2023-03-26T18:32:00.973Z,95579.19
2023-03-26T18:34:31.552Z,95571.53
2023-03-26T18:37:16.751Z,95566.72
2023-03-26T18:40:15.416Z,95572.56
2023-03-26T18:42:47.165Z,95566.28
2023-03-26T18:45:33.761Z,95574.03
2023-03-26T18:48:04.828Z,95574.25
2023-03-26T18:50:36.932Z,95565.56
2023-03-26T18:53:06.913Z,95563.69
2023-03-26T18:55:39.289Z,95549.94
2023-03-26T18:58:34.914Z,95547.53
2023-03-26T19:01:16.886Z,95546.66
2023-03-26T19:03:50.622Z,95545.28
2023-03-26T19:06:17.703Z,95550.97
2023-03-26T19:08:45.673Z,95545.72
2023-03-26T19:11:16.080Z,95549.16
2023-03-26T19:13:43.452Z,95556.78
2023-03-26T19:16:29.357Z,95571.44
2023-03-26T19:18:58.874Z,95565.84
2023-03-26T19:21:25.412Z,95564.00
2023-03-26T19:23:52.473Z,95565.72
2023-03-26T19:26:19.137Z,95558.84
2023-03-26T19:28:50.778Z,95543.19
2023-03-26T19:31:23.863Z,95555.06
2023-03-26T19:34:11.487Z,95551.25
2023-03-26T19:37:01.526Z,95546.53
2023-03-26T19:39:41.605Z,95548.69
2023-03-26T19:42:18.256Z,95549.25
2023-03-26T19:44:45.030Z,95533.50
2023-03-26T19:47:29.284Z,95520.78
2023-03-26T19:50:01.790Z,95513.59
2023-03-26T19:52:34.041Z,95524.44
2023-03-26T19:55:06.808Z,95513.69
2023-03-26T19:57:36.541Z,95504.78
2023-03-26T20:00:09.316Z,95505.81
2023-03-26T20:02:35.869Z,95504.66
2023-03-26T20:05:02.432Z,95505.91
2023-03-26T20:07:35.834Z,95494.38
2023-03-26T20:10:05.546Z,95496.81
2023-03-26T20:12:32.381Z,95496.59
2023-03-26T20:14:58.817Z,95485.38
2023-03-26T20:17:25.455Z,95486.50
2023-03-26T20:19:54.145Z,95487.69
2023-03-26T20:22:20.580Z,95489.19
2023-03-26T20:24:47.564Z,95481.31
2023-03-26T20:27:14.959Z,95473.06
2023-03-26T20:29:43.318Z,95459.81
2023-03-26T20:32:27.129Z,95458.81
2023-03-26T20:34:54.051Z,95461.22
2023-03-26T20:37:20.526Z,95454.81
2023-03-26T20:39:46.996Z,95446.13
2023-03-26T20:42:15.789Z,95430.56
2023-03-26T20:44:43.058Z,95434.34
2023-03-26T20:47:11.841Z,95430.19
2023-03-26T20:49:38.417Z,95420.84
2023-03-26T20:52:05.175Z,95419.56
2023-03-26T20:54:31.698Z,95420.00
2023-03-26T20:56:58.194Z,95423.84
2023-03-26T20:59:30.498Z,95426.66
2023-03-26T21:01:57.904Z,95416.03
2023-03-26T21:04:26.112Z,95417.28
2023-03-26T21:06:57.631Z,95410.44
2023-03-26T21:09:35.479Z,95415.19
2023-03-26T21:12:08.212Z,95415.19
2023-03-26T21:14:40.963Z,95420.63
2023-03-26T21:17:16.276Z,95424.28
2023-03-26T21:19:45.799Z,95423.25
2023-03-26T21:22:39.210Z,95442.59
2023-03-26T21:25:32.117Z,95457.06
2023-03-26T21:28:29.072Z,95483.25
2023-03-26T21:31:15.197Z,95503.22
2023-03-26T21:33:43.518Z,95525.13
2023-03-26T21:36:10.692Z,95536.03
2023-03-26T21:38:38.744Z,95540.19
2023-03-26T21:41:08.219Z,95542.94
2023-03-26T21:43:39.273Z,95538.63
2023-03-26T21:46:06.410Z,95536.34
2023-03-26T21:48:33.332Z,95541.72
2023-03-26T21:51:04.271Z,95545.59
2023-03-26T21:53:31.130Z,95545.50
2023-03-26T21:56:09.888Z,95543.91
2023-03-26T21:58:36.245Z,95545.00
2023-03-26T22:01:35.760Z,95544.56
2023-03-26T22:04:26.088Z,95555.09
2023-03-26T22:07:03.369Z,95554.53
2023-03-26T22:09:36.480Z,95556.03
2023-03-26T22:12:04.538Z,95553.72
2023-03-26T22:14:31.159Z,95544.81
2023-03-26T22:16:57.514Z,95549.06
2023-03-26T22:19:23.928Z,95540.72
2023-03-26T22:21:54.432Z,95552.81
2023-03-26T22:24:21.084Z,95555.84
2023-03-26T22:26:47.648Z,95558.22
2023-03-26T22:29:14.919Z,95557.31
2023-03-26T22:31:41.853Z,95564.19
2023-03-26T22:34:09.624Z,95571.47
2023-03-26T22:36:36.749Z,95579.09
2023-03-26T22:39:05.636Z,95576.50
2023-03-26T22:41:32.117Z,95577.19
2023-03-26T22:44:09.266Z,95580.19
2023-03-26T22:46:40.343Z,95581.56
2023-03-26T22:49:07.482Z,95586.38
2023-03-26T22:51:33.958Z,95590.72
2023-03-26T22:54:00.328Z,95597.69
2023-03-26T22:56:27.760Z,95595.94
2023-03-26T22:58:54.137Z,95595.59
2023-03-26T23:01:23.947Z,95596.34
2023-03-26T23:03:50.921Z,95597.34
2023-03-26T23:06:17.767Z,95589.69
2023-03-26T23:08:44.574Z,95600.47
2023-03-26T23:11:16.915Z,95598.69
2023-03-26T23:13:44.962Z,95598.69
2023-03-26T23:16:14.490Z,95595.19
2023-03-26T23:18:41.661Z,95599.75
2023-03-26T23:21:15.031Z,95592.59
2023-03-26T23:23:43.573Z,95599.56
2023-03-26T23:26:10.789Z,95597.16
2023-03-26T23:28:38.188Z,95599.19
2023-03-26T23:31:07.763Z,95607.63
2023-03-26T23:33:36.712Z,95615.59
2023-03-26T23:36:07.407Z,95624.28
2023-03-26T23:38:44.301Z,95628.53
2023-03-26T23:41:14.795Z,95629.06
2023-03-26T23:43:54.789Z,95628.03
2023-03-26T23:46:34.678Z,95649.25
2023-03-26T23:49:04.492Z,95659.38
2023-03-26T23:51:32.043Z,95660.16
2023-03-26T23:53:59.778Z,95669.28
2023-03-26T23:56:29.817Z,95662.91
2023-03-26T23:58:56.309Z,95658.53
